createdAt,value
2018-06-21T00:01:23.403Z,99032.07
2018-06-21T00:03:51.471Z,99007.02
2018-06-21T00:06:20.172Z,99015.98
2018-06-21T00:08:48.203Z,99012.45
2018-06-21T00:11:16.534Z,99006.45
2018-06-21T00:13:45.437Z,99012.12
2018-06-21T00:16:13.492Z,98992.97
2018-06-21T00:18:41.777Z,99025.01
2018-06-21T00:21:10.462Z,99030.09
2018-06-21T00:23:38.955Z,99024.73
2018-06-21T00:26:07.052Z,99020.86
2018-06-21T00:28:35.420Z,99022.11
2018-06-21T00:31:03.667Z,99009.92
2018-06-21T00:33:31.741Z,99006.88
2018-06-21T00:36:00.645Z,99008.73
2018-06-21T00:38:28.668Z,98984.66
2018-06-21T00:40:56.822Z,99000.28
2018-06-21T00:43:25.937Z,98993.67
2018-06-21T00:45:54.329Z,98989.38
2018-06-21T00:48:22.842Z,98988.92
2018-06-21T00:50:51.627Z,98987.97
2018-06-21T00:53:19.910Z,98981.03
2018-06-21T00:55:59.192Z,98981.33
2018-06-21T00:58:28.147Z,98979.48
2018-06-21T01:00:56.433Z,98979.89
2018-06-21T01:03:24.736Z,98959.95
2018-06-21T01:05:53.801Z,98971.84
2018-06-21T01:08:22.320Z,98969.02
2018-06-21T01:10:50.868Z,98969.78
2018-06-21T01:13:19.849Z,98929.87
2018-06-21T01:15:48.176Z,98927.88
2018-06-21T01:18:16.975Z,98956.28
2018-06-21T01:20:45.449Z,98961.59
2018-06-21T01:23:13.739Z,98951.77
2018-06-21T01:25:41.852Z,98952.88
2018-06-21T01:28:10.478Z,98951.72
2018-06-21T01:30:38.705Z,98948.36
2018-06-21T01:33:06.840Z,98946.09
2018-06-21T01:35:35.801Z,98944.72
2018-06-21T01:38:04.074Z,98949.42
2018-06-21T01:40:32.410Z,98940.89
2018-06-21T01:43:00.926Z,98938.88
2018-06-21T01:45:29.366Z,98934.81
2018-06-21T01:47:57.938Z,98929.33
2018-06-21T01:50:26.284Z,98929.02
2018-06-21T01:52:56.949Z,98923.44
2018-06-21T01:55:27.266Z,98932.89
2018-06-21T01:57:57.216Z,98929.11
2018-06-21T02:00:25.823Z,98915.32
2018-06-21T02:02:54.304Z,98884.18
2018-06-21T02:05:23.234Z,98923.50
2018-06-21T02:07:51.723Z,98921.22
2018-06-21T02:10:19.742Z,98916.41
2018-06-21T02:12:48.279Z,98867.99
2018-06-21T02:15:16.533Z,98922.11
2018-06-21T02:17:44.864Z,98885.39
2018-06-21T02:20:13.168Z,98913.77
2018-06-21T02:22:41.509Z,98909.23
2018-06-21T02:25:09.659Z,98873.55
2018-06-21T02:27:37.939Z,98904.50
2018-06-21T02:30:05.999Z,98898.65
2018-06-21T02:32:34.068Z,98898.11
2018-06-21T02:35:02.098Z,98898.19
2018-06-21T02:37:30.106Z,98895.91
2018-06-21T02:39:58.364Z,98887.61
2018-06-21T02:42:26.647Z,98885.42
2018-06-21T02:44:54.939Z,98878.14
2018-06-21T02:47:23.164Z,98871.93
2018-06-21T02:49:51.603Z,98875.67
2018-06-21T02:52:19.842Z,98863.80
2018-06-21T02:54:48.112Z,98857.45
2018-06-21T02:57:17.070Z,98858.17
2018-06-21T02:59:47.523Z,98902.08
2018-06-21T03:02:15.968Z,98856.80
2018-06-21T03:04:44.387Z,98856.96
2018-06-21T03:07:12.429Z,98844.78
2018-06-21T03:09:41.390Z,98847.55
2018-06-21T03:12:15.087Z,98829.58
2018-06-21T03:14:43.099Z,98842.13
2018-06-21T03:17:11.771Z,98820.45
2018-06-21T03:19:39.786Z,98815.03
2018-06-21T03:22:08.105Z,98802.23
2018-06-21T03:24:36.576Z,98824.68
2018-06-21T03:27:04.733Z,98823.81
2018-06-21T03:29:33.190Z,98823.81
2018-06-21T03:32:01.975Z,98814.23
2018-06-21T03:34:30.453Z,98818.17
2018-06-21T03:36:58.831Z,98806.89
2018-06-21T03:39:27.421Z,98809.55
2018-06-21T03:41:55.710Z,98790.69
2018-06-21T03:44:23.724Z,98804.39
2018-06-21T03:46:52.475Z,98801.95
2018-06-21T03:49:20.464Z,98799.68
2018-06-21T03:51:48.498Z,98798.27
2018-06-21T03:54:17.226Z,98802.59
2018-06-21T03:56:45.582Z,98791.98
2018-06-21T03:59:13.635Z,98792.02
2018-06-21T04:01:42.533Z,98790.58
2018-06-21T04:04:10.552Z,98793.25
2018-06-21T04:06:38.855Z,98701.73
2018-06-21T04:09:08.755Z,98799.53
2018-06-21T04:11:36.975Z,98775.51
2018-06-21T04:14:05.509Z,98788.89
2018-06-21T04:16:33.875Z,98760.17
2018-06-21T04:19:01.905Z,98741.47
2018-06-21T04:21:29.972Z,98782.98
2018-06-21T04:23:58.784Z,98778.91
2018-06-21T04:26:27.287Z,98774.45
2018-06-21T04:28:55.619Z,98782.70
2018-06-21T04:31:23.834Z,98776.02
2018-06-21T04:33:51.966Z,98767.23
2018-06-21T04:36:20.767Z,98772.59
2018-06-21T04:38:48.842Z,98760.64
2018-06-21T04:41:17.028Z,98698.73
2018-06-21T04:43:45.914Z,98751.27
2018-06-21T04:46:14.244Z,98758.91
2018-06-21T04:48:42.830Z,98753.51
2018-06-21T04:51:11.132Z,98732.06
2018-06-21T04:53:39.459Z,98757.34
2018-06-21T04:56:07.495Z,98740.25
2018-06-21T04:58:36.064Z,98726.44
2018-06-21T05:01:04.109Z,98757.18
2018-06-21T05:03:32.995Z,98756.67
2018-06-21T05:06:03.008Z,98659.03
2018-06-21T05:08:32.807Z,98748.85
2018-06-21T05:11:02.018Z,98560.89
2018-06-21T05:13:31.509Z,98743.80
2018-06-21T05:16:00.479Z,98707.30
2018-06-21T05:18:28.647Z,98714.77
2018-06-21T05:20:56.856Z,98731.75
2018-06-21T05:23:26.758Z,98672.16
2018-06-21T05:25:58.272Z,98727.54
2018-06-21T05:28:28.355Z,98730.48
2018-06-21T05:30:57.732Z,98718.03
2018-06-21T05:33:27.130Z,98764.48
2018-06-21T05:35:55.415Z,98717.45
2018-06-21T05:38:26.286Z,98710.42
2018-06-21T05:40:54.411Z,98709.16
2018-06-21T05:43:23.006Z,98667.42
2018-06-21T05:45:52.251Z,98697.75
2018-06-21T05:48:21.983Z,98640.14
2018-06-21T05:50:51.218Z,98690.34
2018-06-21T05:53:20.945Z,98687.53
2018-06-21T05:55:51.009Z,98609.17
2018-06-21T05:58:19.737Z,98656.70
2018-06-21T06:00:48.127Z,98687.33
2018-06-21T06:03:16.227Z,98666.37
2018-06-21T06:05:46.339Z,98650.50
2018-06-21T06:08:14.359Z,98671.17
2018-06-21T06:10:42.499Z,98662.75
2018-06-21T06:13:11.061Z,98665.56
2018-06-21T06:15:39.142Z,98678.12
2018-06-21T06:18:08.081Z,98637.78
2018-06-21T06:20:36.616Z,98664.67
2018-06-21T06:23:06.467Z,98648.80
2018-06-21T06:25:35.557Z,98674.51
2018-06-21T06:28:06.605Z,98656.91
2018-06-21T06:30:36.619Z,98680.18
2018-06-21T06:33:08.939Z,98546.55
2018-06-21T06:35:38.250Z,98667.03
2018-06-21T06:38:09.794Z,98665.83
2018-06-21T06:40:39.939Z,98693.50
2018-06-21T06:43:11.417Z,98661.14
2018-06-21T06:45:40.459Z,98659.45
2018-06-21T06:48:09.883Z,98672.52
2018-06-21T06:50:39.293Z,98660.33
2018-06-21T06:53:09.378Z,98666.47
2018-06-21T06:55:39.342Z,98654.34
2018-06-21T06:58:09.532Z,98656.76
2018-06-21T07:00:38.710Z,98659.30
2018-06-21T07:03:08.146Z,98659.69
2018-06-21T07:05:37.341Z,98652.85
2018-06-21T07:08:06.716Z,98645.83
2018-06-21T07:10:36.623Z,98655.70
2018-06-21T07:13:06.747Z,98645.78
2018-06-21T07:15:36.280Z,98649.97
2018-06-21T07:18:06.277Z,98655.66
2018-06-21T07:20:35.291Z,98644.63
2018-06-21T07:23:04.411Z,98646.89
2018-06-21T07:25:33.681Z,98639.59
2018-06-21T07:28:02.987Z,98635.44
2018-06-21T07:30:32.139Z,98634.94
2018-06-21T07:33:02.090Z,98629.55
2018-06-21T07:35:31.722Z,98624.61
2018-06-21T07:38:01.668Z,98619.86
2018-06-21T07:40:31.418Z,98623.24
2018-06-21T07:43:00.592Z,98628.72
2018-06-21T07:45:31.005Z,98626.09
2018-06-21T07:48:01.363Z,98616.64
2018-06-21T07:50:30.431Z,98618.56
2018-06-21T07:52:59.916Z,98616.45
2018-06-21T07:55:34.025Z,98612.17
2018-06-21T07:58:03.162Z,98582.36
2018-06-21T08:00:32.190Z,98610.94
2018-06-21T08:03:01.932Z,98612.30
2018-06-21T08:05:30.921Z,98608.02
2018-06-21T08:08:00.989Z,98565.19
2018-06-21T08:10:31.368Z,98491.59
2018-06-21T08:13:01.096Z,98603.97
2018-06-21T08:15:31.424Z,98628.43
2018-06-21T08:18:00.648Z,98611.05
2018-06-21T08:20:32.196Z,98606.70
2018-06-21T08:23:03.296Z,98610.39
2018-06-21T08:25:32.115Z,98592.81
2018-06-21T08:28:00.138Z,98601.41
2018-06-21T08:30:28.846Z,98607.00
2018-06-21T08:32:57.588Z,98599.50
2018-06-21T08:35:25.659Z,98601.64
2018-06-21T08:37:53.695Z,98602.12
2018-06-21T08:40:22.186Z,98607.44
2018-06-21T08:42:50.423Z,98603.23
2018-06-21T08:45:19.565Z,98602.64
2018-06-21T08:47:47.916Z,98614.59
2018-06-21T08:50:16.096Z,98603.53
2018-06-21T08:52:44.791Z,98596.31
2018-06-21T08:55:13.560Z,98577.89
2018-06-21T08:57:41.789Z,98594.23
2018-06-21T09:00:10.478Z,98606.25
2018-06-21T09:02:38.870Z,98604.77
2018-06-21T09:05:07.384Z,98548.88
2018-06-21T09:07:36.139Z,98595.13
2018-06-21T09:10:05.178Z,98588.11
2018-06-21T09:12:37.611Z,98585.25
2018-06-21T09:15:08.546Z,98583.30
2018-06-21T09:17:36.777Z,98593.08
2018-06-21T09:20:05.245Z,98596.20
2018-06-21T09:22:33.470Z,98586.88
2018-06-21T09:25:02.189Z,98579.42
2018-06-21T09:27:30.588Z,98596.31
2018-06-21T09:29:59.445Z,98598.05
2018-06-21T09:32:29.107Z,98609.52
2018-06-21T09:34:57.279Z,98579.48
2018-06-21T09:37:30.805Z,98606.34
2018-06-21T09:40:04.443Z,98598.92
2018-06-21T09:42:37.937Z,98601.77
2018-06-21T09:45:05.979Z,98610.80
2018-06-21T09:50:16.611Z,98593.91
2018-06-21T09:52:45.282Z,98595.92
2018-06-21T09:55:13.347Z,98601.80
2018-06-21T09:57:41.494Z,98593.55
2018-06-21T10:00:14.334Z,98613.63
2018-06-21T10:02:42.465Z,98581.02
2018-06-21T10:05:10.803Z,98501.25
2018-06-21T10:07:39.383Z,98599.97
2018-06-21T10:10:07.476Z,98619.56
2018-06-21T10:12:35.753Z,98612.36
2018-06-21T10:15:05.223Z,98632.91
2018-06-21T10:17:33.516Z,98620.28
2018-06-21T10:20:02.459Z,98617.94
2018-06-21T10:22:31.622Z,98548.13
2018-06-21T10:24:59.685Z,98626.05
2018-06-21T10:27:28.035Z,98610.58
2018-06-21T10:29:57.276Z,98625.16
2018-06-21T10:32:26.409Z,98628.37
2018-06-21T10:34:54.913Z,98640.36
2018-06-21T10:37:23.636Z,98635.14
2018-06-21T10:39:52.318Z,98653.93
2018-06-21T10:42:21.944Z,98648.40
2018-06-21T10:44:51.649Z,98645.81
2018-06-21T10:47:20.134Z,98625.94
2018-06-21T10:49:49.644Z,98671.17
2018-06-21T10:52:18.239Z,98717.70
2018-06-21T10:54:46.320Z,98723.35
2018-06-21T10:57:14.576Z,98743.11
2018-06-21T10:59:42.899Z,98750.80
2018-06-21T11:02:11.053Z,98764.56
2018-06-21T11:04:40.302Z,98790.52
2018-06-21T11:07:08.838Z,98786.78
2018-06-21T11:09:36.873Z,98807.70
2018-06-21T11:12:05.337Z,98797.45
2018-06-21T11:14:34.180Z,98801.53
2018-06-21T11:17:02.275Z,98812.67
2018-06-21T11:19:30.734Z,98830.13
2018-06-21T11:21:59.188Z,98843.77
2018-06-21T11:24:27.635Z,98826.78
2018-06-21T11:26:56.165Z,98835.97
2018-06-21T11:29:24.677Z,98849.89
2018-06-21T11:31:52.802Z,98840.95
2018-06-21T11:34:20.926Z,98844.76
2018-06-21T11:36:49.281Z,98842.11
2018-06-21T11:39:17.446Z,98861.62
2018-06-21T11:41:45.546Z,98863.14
2018-06-21T11:44:13.792Z,98879.23
2018-06-21T11:46:41.920Z,98876.92
2018-06-21T11:49:10.602Z,98844.38
2018-06-21T11:51:39.395Z,98873.84
2018-06-21T11:54:07.459Z,98891.16
2018-06-21T11:56:35.509Z,98867.86
2018-06-21T11:59:03.897Z,98865.63
2018-06-21T12:01:31.916Z,98907.57
2018-06-21T12:04:03.661Z,98890.22
2018-06-21T12:06:32.087Z,98897.45
2018-06-21T12:09:00.226Z,98897.67
2018-06-21T12:11:28.275Z,98893.78
2018-06-21T12:13:56.744Z,98885.72
2018-06-21T12:16:25.675Z,98909.81
2018-06-21T12:18:53.913Z,98912.14
2018-06-21T12:21:22.598Z,98909.16
2018-06-21T12:23:50.916Z,98905.51
2018-06-21T12:26:19.946Z,98909.63
2018-06-21T12:28:48.935Z,98903.89
2018-06-21T12:31:17.187Z,98914.47
2018-06-21T12:33:45.498Z,98904.89
2018-06-21T12:36:14.142Z,98880.23
2018-06-21T12:38:42.540Z,98906.62
2018-06-21T12:41:10.967Z,98895.02
2018-06-21T12:43:39.391Z,98906.80
2018-06-21T12:46:07.533Z,98903.97
2018-06-21T12:48:35.566Z,98901.65
2018-06-21T12:51:03.741Z,98904.03
2018-06-21T12:53:32.268Z,98911.13
2018-06-21T12:56:00.754Z,98912.52
2018-06-21T12:58:28.814Z,98918.22
2018-06-21T13:00:56.900Z,98898.94
2018-06-21T13:03:25.942Z,98893.16
2018-06-21T13:05:53.997Z,98892.97
2018-06-21T13:08:33.506Z,98885.81
2018-06-21T13:13:23.033Z,98886.38
2018-06-21T13:15:51.413Z,98903.51
2018-06-21T13:18:21.011Z,98903.44
2018-06-21T13:20:49.686Z,98879.78
2018-06-21T13:23:20.426Z,98872.98
2018-06-21T13:25:49.519Z,98872.60
2018-06-21T13:28:24.001Z,98874.36
2018-06-21T13:30:52.302Z,98884.23
2018-06-21T13:33:25.209Z,98893.32
2018-06-21T13:35:54.169Z,98885.00
2018-06-21T13:38:22.506Z,98888.31
2018-06-21T13:40:51.636Z,98875.52
2018-06-21T13:43:19.855Z,98880.45
2018-06-21T13:45:48.011Z,98887.44
2018-06-21T13:48:17.044Z,98887.31
2018-06-21T13:50:45.568Z,98903.53
2018-06-21T13:53:13.760Z,98899.81
2018-06-21T13:55:43.079Z,98909.95
2018-06-21T13:58:12.905Z,98914.59
2018-06-21T14:00:41.640Z,98929.00
2018-06-21T14:03:10.625Z,98922.86
2018-06-21T14:05:39.153Z,98926.04
2018-06-21T14:08:09.973Z,98931.77
2018-06-21T14:10:45.615Z,98926.45
2018-06-21T14:13:14.186Z,98928.25
2018-06-21T14:15:42.594Z,98936.28
2018-06-21T14:18:11.992Z,98944.89
2018-06-21T14:20:40.380Z,98950.01
2018-06-21T14:23:11.947Z,98889.62
2018-06-21T14:25:40.550Z,98960.20
2018-06-21T14:28:10.212Z,98933.69
2018-06-21T14:30:39.382Z,98907.48
2018-06-21T14:33:08.417Z,98953.90
2018-06-21T14:35:36.998Z,98961.23
2018-06-21T14:38:05.628Z,98945.05
2018-06-21T14:40:36.399Z,98936.72
2018-06-21T14:43:05.236Z,98973.25
2018-06-21T14:45:33.820Z,98950.41
2018-06-21T14:48:02.989Z,98973.15
2018-06-21T14:50:33.206Z,98990.73
2018-06-21T14:53:01.299Z,98975.98
2018-06-21T14:55:29.532Z,99005.58
2018-06-21T14:57:59.116Z,98994.56
2018-06-21T15:00:28.254Z,98997.06
2018-06-21T15:02:56.441Z,98991.41
2018-06-21T15:05:25.843Z,99014.97
2018-06-21T15:07:54.167Z,99002.86
2018-06-21T15:10:22.362Z,99020.05
2018-06-21T15:12:52.837Z,99006.93
2018-06-21T15:15:21.836Z,99021.31
2018-06-21T15:17:50.243Z,99013.83
2018-06-21T15:20:18.900Z,99019.91
2018-06-21T15:22:47.112Z,99024.64
2018-06-21T15:25:15.243Z,99020.70
2018-06-21T15:27:44.372Z,99020.05
2018-06-21T15:30:12.775Z,99031.92
2018-06-21T15:32:41.025Z,99022.25
2018-06-21T15:35:09.546Z,99053.73
2018-06-21T15:37:37.598Z,99043.52
2018-06-21T15:40:06.180Z,99020.64
2018-06-21T15:42:35.711Z,99043.41
2018-06-21T15:45:05.488Z,99011.09
2018-06-21T15:47:34.283Z,99019.11
2018-06-21T15:50:07.009Z,99047.95
2018-06-21T15:52:35.551Z,99051.04
2018-06-21T15:55:03.791Z,99035.09
2018-06-21T15:57:32.481Z,99061.65
2018-06-21T16:00:01.045Z,99054.97
2018-06-21T16:02:29.797Z,99074.23
2018-06-21T16:04:58.056Z,99068.38
2018-06-21T16:07:26.165Z,99079.16
2018-06-21T16:09:54.276Z,99093.13
2018-06-21T16:12:23.079Z,99109.25
2018-06-21T16:14:51.814Z,99077.91
2018-06-21T16:17:20.044Z,99099.75
2018-06-21T16:19:50.082Z,99106.09
2018-06-21T16:22:23.554Z,99074.44
2018-06-21T16:24:52.180Z,99102.67
2018-06-21T16:27:30.796Z,99081.30
2018-06-21T16:30:03.829Z,99102.58
2018-06-21T16:32:34.494Z,99108.58
2018-06-21T16:35:07.901Z,99098.80
2018-06-21T16:37:38.578Z,99111.09
2018-06-21T16:40:08.439Z,99114.95
2018-06-21T16:42:38.144Z,99099.44
2018-06-21T16:45:06.624Z,99110.00
2018-06-21T16:47:35.090Z,99119.28
2018-06-21T16:50:03.940Z,99122.98
2018-06-21T16:52:32.946Z,99123.75
2018-06-21T16:55:01.795Z,99128.73
2018-06-21T16:57:31.082Z,99128.05
2018-06-21T17:00:00.860Z,99128.52
2018-06-21T17:02:30.948Z,99135.17
2018-06-21T17:05:00.601Z,99125.77
2018-06-21T17:07:30.553Z,99138.81
2018-06-21T17:09:58.617Z,99145.13
2018-06-21T17:12:26.930Z,99146.75
2018-06-21T17:14:55.031Z,99153.39
2018-06-21T17:17:23.117Z,99155.44
2018-06-21T17:19:51.146Z,99167.86
2018-06-21T17:22:19.704Z,99172.28
2018-06-21T17:24:48.189Z,99174.35
2018-06-21T17:27:16.520Z,99174.46
2018-06-21T17:29:44.720Z,99186.17
2018-06-21T17:32:12.944Z,99183.78
2018-06-21T17:34:41.450Z,99181.41
2018-06-21T17:37:09.994Z,99190.22
2018-06-21T17:39:38.520Z,99188.68
2018-06-21T17:42:06.984Z,99185.63
2018-06-21T17:44:35.419Z,99179.78
2018-06-21T17:47:04.820Z,99165.81
2018-06-21T17:49:33.119Z,99174.77
2018-06-21T17:52:02.616Z,99208.29
2018-06-21T17:54:33.712Z,99205.39
2018-06-21T17:57:02.327Z,99204.61
2018-06-21T17:59:32.498Z,99186.56
2018-06-21T18:02:01.556Z,99208.22
2018-06-21T18:04:30.058Z,99223.03
2018-06-21T18:06:58.356Z,99212.78
2018-06-21T18:09:26.539Z,99223.81
2018-06-21T18:11:54.984Z,99224.77
2018-06-21T18:14:23.917Z,99205.55
2018-06-21T18:16:53.261Z,99229.75
2018-06-21T18:19:21.927Z,99247.66
2018-06-21T18:21:50.444Z,99209.64
2018-06-21T18:24:18.826Z,99208.30
2018-06-21T18:26:47.192Z,99248.83
2018-06-21T18:29:16.006Z,99242.37
2018-06-21T18:31:44.612Z,99243.62
2018-06-21T18:34:13.464Z,99217.34
2018-06-21T18:36:41.833Z,99248.03
2018-06-21T18:39:11.559Z,99255.51
2018-06-21T18:41:40.743Z,99266.83
2018-06-21T18:44:09.255Z,99260.16
2018-06-21T18:46:37.848Z,99268.22
2018-06-21T18:49:07.437Z,99252.29
2018-06-21T18:51:36.715Z,99256.94
2018-06-21T18:54:05.519Z,99269.19
2018-06-21T18:56:35.615Z,99268.00
2018-06-21T18:59:06.345Z,99271.02
2018-06-21T19:01:35.312Z,99279.64
2018-06-21T19:04:03.916Z,99278.41
2018-06-21T19:06:38.111Z,99271.48
2018-06-21T19:09:13.327Z,99278.63
2018-06-21T19:11:47.629Z,99290.69
2018-06-21T19:14:15.950Z,99282.05
2018-06-21T19:16:45.101Z,99271.28
2018-06-21T19:19:17.702Z,99306.50
2018-06-21T19:21:45.790Z,99292.78
2018-06-21T19:24:14.180Z,99305.05
2018-06-21T19:26:42.564Z,99306.52
2018-06-21T19:29:11.320Z,99298.41
2018-06-21T19:31:39.488Z,99322.30
2018-06-21T19:34:09.004Z,99313.73
2018-06-21T19:36:37.435Z,99302.30
2018-06-21T19:39:08.876Z,99296.59
2018-06-21T19:41:39.335Z,99324.53
2018-06-21T19:44:12.039Z,99328.63
2018-06-21T19:46:40.332Z,99333.38
2018-06-21T19:49:08.813Z,99340.14
2018-06-21T19:51:37.738Z,99330.30
2018-06-21T19:54:05.861Z,99348.94
2018-06-21T19:56:35.059Z,99347.80
2018-06-21T19:59:04.252Z,99304.78
2018-06-21T20:01:32.962Z,99352.90
2018-06-21T20:04:02.911Z,99352.00
2018-06-21T20:06:31.287Z,99355.96
2018-06-21T20:08:59.404Z,99362.46
2018-06-21T20:11:33.394Z,99365.64
2018-06-21T20:14:02.126Z,99370.98
2018-06-21T20:16:30.468Z,99375.71
2018-06-21T20:19:08.462Z,99366.77
2018-06-21T20:21:36.967Z,99371.62
2018-06-21T20:24:05.353Z,99379.54
2018-06-21T20:26:34.034Z,99379.12
2018-06-21T20:29:02.248Z,99375.42
2018-06-21T20:31:30.374Z,99381.16
2018-06-21T20:33:58.687Z,99370.55
2018-06-21T20:36:27.912Z,99377.56
2018-06-21T20:38:56.451Z,99388.28
2018-06-21T20:41:24.641Z,99392.58
2018-06-21T20:43:52.802Z,99377.13
2018-06-21T20:46:21.074Z,99412.33
2018-06-21T20:48:49.675Z,99403.65
2018-06-21T20:51:18.629Z,99397.27
2018-06-21T20:53:46.942Z,99405.77
2018-06-21T20:56:15.169Z,99399.85
2018-06-21T20:58:44.097Z,99407.60
2018-06-21T21:01:12.487Z,99380.61
2018-06-21T21:03:41.049Z,99406.78
2018-06-21T21:06:09.099Z,99415.04
2018-06-21T21:08:37.267Z,99413.90
2018-06-21T21:11:06.172Z,99408.38
2018-06-21T21:13:36.922Z,99393.20
2018-06-21T21:16:05.315Z,99427.16
2018-06-21T21:18:33.884Z,99425.98
2018-06-21T21:21:02.229Z,99431.53
2018-06-21T21:23:30.554Z,99411.73
2018-06-21T21:25:58.870Z,99429.56
2018-06-21T21:28:27.209Z,99431.19
2018-06-21T21:30:55.473Z,99430.17
2018-06-21T21:33:24.692Z,99381.42
2018-06-21T21:35:52.767Z,99445.69
2018-06-21T21:38:21.242Z,99440.54
2018-06-21T21:40:49.301Z,99441.16
2018-06-21T21:43:17.588Z,99433.29
2018-06-21T21:45:45.915Z,99462.98
2018-06-21T21:48:14.257Z,99452.61
2018-06-21T21:50:42.632Z,99446.70
2018-06-21T21:53:10.967Z,99454.42
2018-06-21T21:55:39.185Z,99438.52
2018-06-21T21:58:07.439Z,99449.20
2018-06-21T22:00:59.276Z,99446.67
2018-06-21T22:03:27.963Z,99434.55
2018-06-21T22:05:56.256Z,99455.84
2018-06-21T22:08:24.795Z,99445.55
2018-06-21T22:10:52.920Z,99465.13
2018-06-21T22:13:21.008Z,99440.41
2018-06-21T22:15:49.465Z,99457.17
2018-06-21T22:18:17.750Z,99447.88
2018-06-21T22:20:46.082Z,99458.50
2018-06-21T22:23:14.199Z,99458.66
2018-06-21T22:25:42.236Z,99465.70
2018-06-21T22:28:11.151Z,99454.48
2018-06-21T22:30:39.812Z,99453.81
2018-06-21T22:33:08.626Z,99458.81
2018-06-21T22:35:36.679Z,99465.27
2018-06-21T22:38:06.725Z,99451.13
2018-06-21T22:43:45.106Z,99457.70
2018-06-21T22:46:13.439Z,99451.54
2018-06-21T22:48:41.487Z,99462.26
2018-06-21T22:51:09.550Z,99437.61
2018-06-21T22:53:37.918Z,99455.16
2018-06-21T22:56:05.980Z,99450.70
2018-06-21T22:58:34.380Z,99457.98
2018-06-21T23:01:02.970Z,99459.82
2018-06-21T23:03:31.335Z,99466.60
2018-06-21T23:05:59.607Z,99461.91
2018-06-21T23:08:28.360Z,99467.15
2018-06-21T23:10:56.499Z,99457.02
2018-06-21T23:13:24.495Z,99468.88
2018-06-21T23:15:52.590Z,99440.72
2018-06-21T23:18:31.859Z,99458.32
2018-06-21T23:21:00.166Z,99463.21
2018-06-21T23:23:28.467Z,99460.08
2018-06-21T23:25:56.484Z,99457.98
2018-06-21T23:28:24.828Z,99456.61
2018-06-21T23:30:52.858Z,99463.60
2018-06-21T23:33:21.334Z,99466.40
2018-06-21T23:35:49.619Z,99465.88
2018-06-21T23:38:17.929Z,99464.80
2018-06-21T23:40:45.971Z,99460.47
2018-06-21T23:43:14.062Z,99462.15
2018-06-21T23:45:42.449Z,99477.68
2018-06-21T23:48:11.353Z,99457.59
2018-06-21T23:50:39.646Z,99480.81
2018-06-21T23:53:07.688Z,99487.90
2018-06-21T23:55:35.741Z,99460.73
2018-06-21T23:58:04.146Z,99488.20
